sensor_id;sensor_type;location;lat;lon;timestamp;P1;durP1;ratioP1;P2;durP2;ratioP2
11135;SDS011;5622;50.840;4.948;2022-12-29T00:01:37;1.50;;;1.40;;
11135;SDS011;5622;50.840;4.948;2022-12-29T00:04:04;1.40;;;1.30;;
11135;SDS011;5622;50.840;4.948;2022-12-29T00:06:32;1.77;;;1.67;;
11135;SDS011;5622;50.840;4.948;2022-12-29T00:08:59;2.87;;;1.77;;
11135;SDS011;5622;50.840;4.948;2022-12-29T00:11:27;2.63;;;1.63;;
11135;SDS011;5622;50.840;4.948;2022-12-29T00:13:54;3.97;;;1.60;;
11135;SDS011;5622;50.840;4.948;2022-12-29T00:16:40;3.73;;;1.50;;
11135;SDS011;5622;50.840;4.948;2022-12-29T00:19:08;1.80;;;1.27;;
11135;SDS011;5622;50.840;4.948;2022-12-29T00:21:56;3.40;;;1.67;;
11135;SDS011;5622;50.840;4.948;2022-12-29T00:24:41;1.53;;;1.40;;
11135;SDS011;5622;50.840;4.948;2022-12-29T00:27:27;1.33;;;1.23;;
11135;SDS011;5622;50.840;4.948;2022-12-29T00:30:13;2.83;;;1.27;;
11135;SDS011;5622;50.840;4.948;2022-12-29T00:32:59;2.50;;;1.10;;
11135;SDS011;5622;50.840;4.948;2022-12-29T00:35:44;1.27;;;1.17;;
11135;SDS011;5622;50.840;4.948;2022-12-29T00:38:17;5.67;;;1.40;;
11135;SDS011;5622;50.840;4.948;2022-12-29T00:41:02;2.43;;;1.10;;
11135;SDS011;5622;50.840;4.948;2022-12-29T00:43:48;2.07;;;1.40;;
11135;SDS011;5622;50.840;4.948;2022-12-29T00:46:35;1.90;;;1.23;;
11135;SDS011;5622;50.840;4.948;2022-12-29T00:49:03;1.43;;;1.27;;
11135;SDS011;5622;50.840;4.948;2022-12-29T00:51:49;3.27;;;1.40;;
11135;SDS011;5622;50.840;4.948;2022-12-29T00:54:16;2.90;;;1.40;;
11135;SDS011;5622;50.840;4.948;2022-12-29T00:56:45;3.27;;;1.37;;
11135;SDS011;5622;50.840;4.948;2022-12-29T00:59:15;1.60;;;1.50;;
11135;SDS011;5622;50.840;4.948;2022-12-29T01:01:42;3.03;;;1.30;;
11135;SDS011;5622;50.840;4.948;2022-12-29T01:04:10;3.83;;;1.50;;
11135;SDS011;5622;50.840;4.948;2022-12-29T01:06:38;2.30;;;1.40;;
11135;SDS011;5622;50.840;4.948;2022-12-29T01:09:07;2.80;;;1.40;;
11135;SDS011;5622;50.840;4.948;2022-12-29T01:11:52;2.07;;;1.47;;
11135;SDS011;5622;50.840;4.948;2022-12-29T01:14:21;2.20;;;1.60;;
11135;SDS011;5622;50.840;4.948;2022-12-29T01:16:49;3.83;;;1.33;;
11135;SDS011;5622;50.840;4.948;2022-12-29T01:19:16;2.97;;;1.60;;
11135;SDS011;5622;50.840;4.948;2022-12-29T01:21:44;3.70;;;1.47;;
11135;SDS011;5622;50.840;4.948;2022-12-29T01:24:12;2.40;;;1.43;;
11135;SDS011;5622;50.840;4.948;2022-12-29T01:26:40;1.50;;;1.40;;
11135;SDS011;5622;50.840;4.948;2022-12-29T01:29:07;2.07;;;1.40;;
11135;SDS011;5622;50.840;4.948;2022-12-29T01:31:35;2.33;;;1.50;;
11135;SDS011;5622;50.840;4.948;2022-12-29T01:34:03;4.60;;;1.70;;
11135;SDS011;5622;50.840;4.948;2022-12-29T01:36:30;2.57;;;1.50;;
11135;SDS011;5622;50.840;4.948;2022-12-29T01:38:57;1.90;;;1.70;;
11135;SDS011;5622;50.840;4.948;2022-12-29T01:41:25;3.03;;;1.77;;
11135;SDS011;5622;50.840;4.948;2022-12-29T01:43:53;2.53;;;1.60;;
11135;SDS011;5622;50.840;4.948;2022-12-29T01:46:22;3.37;;;1.73;;
11135;SDS011;5622;50.840;4.948;2022-12-29T01:48:55;3.93;;;1.70;;
11135;SDS011;5622;50.840;4.948;2022-12-29T01:51:28;2.40;;;1.40;;
11135;SDS011;5622;50.840;4.948;2022-12-29T01:54:00;2.37;;;1.80;;
11135;SDS011;5622;50.840;4.948;2022-12-29T01:56:31;2.77;;;1.50;;
11135;SDS011;5622;50.840;4.948;2022-12-29T01:59:00;6.13;;;1.77;;
11135;SDS011;5622;50.840;4.948;2022-12-29T02:01:31;3.67;;;1.60;;
11135;SDS011;5622;50.840;4.948;2022-12-29T02:04:00;2.90;;;1.60;;
11135;SDS011;5622;50.840;4.948;2022-12-29T02:06:29;3.50;;;1.70;;
11135;SDS011;5622;50.840;4.948;2022-12-29T02:09:00;3.10;;;1.73;;
11135;SDS011;5622;50.840;4.948;2022-12-29T02:11:27;2.10;;;1.70;;
11135;SDS011;5622;50.840;4.948;2022-12-29T02:13:56;2.67;;;1.50;;
11135;SDS011;5622;50.840;4.948;2022-12-29T02:16:29;4.20;;;1.40;;
11135;SDS011;5622;50.840;4.948;2022-12-29T02:19:06;2.10;;;1.63;;
11135;SDS011;5622;50.840;4.948;2022-12-29T02:22:01;2.27;;;1.53;;
11135;SDS011;5622;50.840;4.948;2022-12-29T02:27:52;1.03;;;1.00;;
11135;SDS011;5622;50.840;4.948;2022-12-29T02:30:47;1.23;;;1.13;;
11135;SDS011;5622;50.840;4.948;2022-12-29T02:33:27;2.00;;;1.30;;
11135;SDS011;5622;50.840;4.948;2022-12-29T02:36:06;3.30;;;1.40;;
11135;SDS011;5622;50.840;4.948;2022-12-29T02:38:42;1.43;;;1.33;;
11135;SDS011;5622;50.840;4.948;2022-12-29T02:41:18;2.67;;;1.30;;
11135;SDS011;5622;50.840;4.948;2022-12-29T02:43:49;1.77;;;1.40;;
11135;SDS011;5622;50.840;4.948;2022-12-29T02:46:25;1.90;;;1.50;;
11135;SDS011;5622;50.840;4.948;2022-12-29T02:49:02;2.33;;;1.27;;
11135;SDS011;5622;50.840;4.948;2022-12-29T02:51:50;1.93;;;1.40;;
11135;SDS011;5622;50.840;4.948;2022-12-29T02:54:22;1.37;;;1.20;;
11135;SDS011;5622;50.840;4.948;2022-12-29T02:57:11;1.10;;;1.10;;
11135;SDS011;5622;50.840;4.948;2022-12-29T02:59:40;1.97;;;1.17;;
11135;SDS011;5622;50.840;4.948;2022-12-29T03:02:22;2.13;;;1.30;;
11135;SDS011;5622;50.840;4.948;2022-12-29T03:05:12;2.17;;;1.40;;
11135;SDS011;5622;50.840;4.948;2022-12-29T03:07:50;2.27;;;1.20;;
11135;SDS011;5622;50.840;4.948;2022-12-29T03:10:30;1.10;;;1.00;;
11135;SDS011;5622;50.840;4.948;2022-12-29T03:13:04;3.53;;;1.60;;
11135;SDS011;5622;50.840;4.948;2022-12-29T03:15:59;2.33;;;1.23;;
11135;SDS011;5622;50.840;4.948;2022-12-29T03:18:39;2.07;;;1.43;;
11135;SDS011;5622;50.840;4.948;2022-12-29T03:21:14;4.13;;;1.40;;
11135;SDS011;5622;50.840;4.948;2022-12-29T03:23:46;2.03;;;1.40;;
11135;SDS011;5622;50.840;4.948;2022-12-29T03:26:16;1.93;;;1.20;;
11135;SDS011;5622;50.840;4.948;2022-12-29T03:28:46;3.50;;;1.20;;
11135;SDS011;5622;50.840;4.948;2022-12-29T03:31:18;2.50;;;1.30;;
11135;SDS011;5622;50.840;4.948;2022-12-29T03:33:47;2.03;;;1.50;;
11135;SDS011;5622;50.840;4.948;2022-12-29T03:39:03;4.80;;;1.40;;
11135;SDS011;5622;50.840;4.948;2022-12-29T03:41:36;3.10;;;1.30;;
11135;SDS011;5622;50.840;4.948;2022-12-29T03:44:06;4.90;;;1.40;;
11135;SDS011;5622;50.840;4.948;2022-12-29T03:46:33;3.67;;;1.40;;
11135;SDS011;5622;50.840;4.948;2022-12-29T03:49:02;4.10;;;1.30;;
11135;SDS011;5622;50.840;4.948;2022-12-29T03:51:29;4.47;;;1.27;;
11135;SDS011;5622;50.840;4.948;2022-12-29T03:53:56;3.57;;;1.83;;
11135;SDS011;5622;50.840;4.948;2022-12-29T03:56:23;3.13;;;1.37;;
11135;SDS011;5622;50.840;4.948;2022-12-29T03:58:50;4.70;;;1.27;;
11135;SDS011;5622;50.840;4.948;2022-12-29T04:01:17;3.27;;;1.47;;
11135;SDS011;5622;50.840;4.948;2022-12-29T04:03:44;2.30;;;1.17;;
11135;SDS011;5622;50.840;4.948;2022-12-29T04:06:13;5.57;;;1.43;;
11135;SDS011;5622;50.840;4.948;2022-12-29T04:08:40;2.73;;;1.17;;
11135;SDS011;5622;50.840;4.948;2022-12-29T04:11:07;2.23;;;1.10;;
11135;SDS011;5622;50.840;4.948;2022-12-29T04:13:34;3.03;;;1.20;;
11135;SDS011;5622;50.840;4.948;2022-12-29T04:16:02;5.30;;;1.23;;
11135;SDS011;5622;50.840;4.948;2022-12-29T04:18:30;2.37;;;1.20;;
11135;SDS011;5622;50.840;4.948;2022-12-29T04:20:57;2.50;;;1.27;;
11135;SDS011;5622;50.840;4.948;2022-12-29T04:23:29;6.03;;;1.47;;
11135;SDS011;5622;50.840;4.948;2022-12-29T04:25:58;2.70;;;1.07;;
11135;SDS011;5622;50.840;4.948;2022-12-29T04:28:25;4.27;;;1.80;;
11135;SDS011;5622;50.840;4.948;2022-12-29T04:30:52;2.53;;;1.17;;
11135;SDS011;5622;50.840;4.948;2022-12-29T04:33:20;3.37;;;1.23;;
11135;SDS011;5622;50.840;4.948;2022-12-29T04:35:48;5.13;;;1.30;;
11135;SDS011;5622;50.840;4.948;2022-12-29T04:38:16;2.33;;;1.10;;
11135;SDS011;5622;50.840;4.948;2022-12-29T04:40:45;1.77;;;1.17;;
11135;SDS011;5622;50.840;4.948;2022-12-29T04:43:12;2.30;;;1.30;;
11135;SDS011;5622;50.840;4.948;2022-12-29T04:45:42;6.23;;;1.80;;
11135;SDS011;5622;50.840;4.948;2022-12-29T04:48:09;1.77;;;1.37;;
11135;SDS011;5622;50.840;4.948;2022-12-29T04:50:36;5.00;;;1.43;;
11135;SDS011;5622;50.840;4.948;2022-12-29T04:53:04;5.23;;;1.97;;
11135;SDS011;5622;50.840;4.948;2022-12-29T04:55:31;2.93;;;1.43;;
11135;SDS011;5622;50.840;4.948;2022-12-29T04:57:59;2.77;;;1.10;;
11135;SDS011;5622;50.840;4.948;2022-12-29T05:00:27;5.87;;;1.60;;
11135;SDS011;5622;50.840;4.948;2022-12-29T05:02:54;7.73;;;2.07;;
11135;SDS011;5622;50.840;4.948;2022-12-29T05:05:21;5.57;;;1.33;;
11135;SDS011;5622;50.840;4.948;2022-12-29T05:07:48;5.47;;;1.40;;
11135;SDS011;5622;50.840;4.948;2022-12-29T05:10:15;3.97;;;1.40;;
11135;SDS011;5622;50.840;4.948;2022-12-29T05:12:43;6.30;;;1.43;;
11135;SDS011;5622;50.840;4.948;2022-12-29T05:15:11;6.67;;;1.70;;
11135;SDS011;5622;50.840;4.948;2022-12-29T05:17:39;4.63;;;1.40;;
11135;SDS011;5622;50.840;4.948;2022-12-29T05:20:07;4.50;;;1.43;;
11135;SDS011;5622;50.840;4.948;2022-12-29T05:22:34;4.83;;;1.37;;
11135;SDS011;5622;50.840;4.948;2022-12-29T05:25:02;5.10;;;1.93;;
11135;SDS011;5622;50.840;4.948;2022-12-29T05:27:29;6.03;;;1.60;;
11135;SDS011;5622;50.840;4.948;2022-12-29T05:29:56;4.07;;;1.43;;
11135;SDS011;5622;50.840;4.948;2022-12-29T05:32:25;2.53;;;1.20;;
11135;SDS011;5622;50.840;4.948;2022-12-29T05:34:52;3.83;;;1.47;;
11135;SDS011;5622;50.840;4.948;2022-12-29T05:37:19;5.23;;;1.50;;
11135;SDS011;5622;50.840;4.948;2022-12-29T05:39:46;5.63;;;1.67;;
11135;SDS011;5622;50.840;4.948;2022-12-29T05:42:13;3.43;;;1.83;;
11135;SDS011;5622;50.840;4.948;2022-12-29T05:44:40;4.90;;;1.53;;
11135;SDS011;5622;50.840;4.948;2022-12-29T05:47:07;6.87;;;1.67;;
11135;SDS011;5622;50.840;4.948;2022-12-29T05:49:36;4.73;;;1.40;;
11135;SDS011;5622;50.840;4.948;2022-12-29T05:52:03;6.30;;;1.70;;
11135;SDS011;5622;50.840;4.948;2022-12-29T05:54:30;2.77;;;1.30;;
11135;SDS011;5622;50.840;4.948;2022-12-29T05:56:57;6.73;;;1.80;;
11135;SDS011;5622;50.840;4.948;2022-12-29T05:59:24;5.43;;;1.53;;
11135;SDS011;5622;50.840;4.948;2022-12-29T06:01:51;6.03;;;1.90;;
11135;SDS011;5622;50.840;4.948;2022-12-29T06:04:18;4.70;;;2.00;;
11135;SDS011;5622;50.840;4.948;2022-12-29T06:06:47;6.27;;;1.40;;
11135;SDS011;5622;50.840;4.948;2022-12-29T06:09:14;4.63;;;1.47;;
11135;SDS011;5622;50.840;4.948;2022-12-29T06:11:41;4.33;;;1.70;;
11135;SDS011;5622;50.840;4.948;2022-12-29T06:14:08;8.70;;;1.63;;
11135;SDS011;5622;50.840;4.948;2022-12-29T06:16:36;9.10;;;1.60;;
11135;SDS011;5622;50.840;4.948;2022-12-29T06:19:03;4.67;;;1.43;;
11135;SDS011;5622;50.840;4.948;2022-12-29T06:21:30;5.53;;;1.80;;
11135;SDS011;5622;50.840;4.948;2022-12-29T06:23:58;4.50;;;1.67;;
11135;SDS011;5622;50.840;4.948;2022-12-29T06:26:25;5.13;;;1.60;;
11135;SDS011;5622;50.840;4.948;2022-12-29T06:28:53;5.70;;;1.70;;
11135;SDS011;5622;50.840;4.948;2022-12-29T06:31:20;6.43;;;1.90;;
11135;SDS011;5622;50.840;4.948;2022-12-29T06:33:47;10.73;;;2.07;;
11135;SDS011;5622;50.840;4.948;2022-12-29T06:36:14;7.77;;;2.00;;
11135;SDS011;5622;50.840;4.948;2022-12-29T06:38:41;5.33;;;1.70;;
11135;SDS011;5622;50.840;4.948;2022-12-29T06:41:10;11.57;;;2.00;;
11135;SDS011;5622;50.840;4.948;2022-12-29T06:43:37;8.10;;;1.90;;
11135;SDS011;5622;50.840;4.948;2022-12-29T06:46:04;8.63;;;1.97;;
11135;SDS011;5622;50.840;4.948;2022-12-29T06:48:31;5.33;;;1.40;;
11135;SDS011;5622;50.840;4.948;2022-12-29T06:50:58;6.50;;;1.80;;
11135;SDS011;5622;50.840;4.948;2022-12-29T06:53:25;7.13;;;1.87;;
11135;SDS011;5622;50.840;4.948;2022-12-29T06:55:52;5.67;;;2.10;;
11135;SDS011;5622;50.840;4.948;2022-12-29T06:58:21;8.63;;;1.77;;
11135;SDS011;5622;50.840;4.948;2022-12-29T07:00:48;7.23;;;2.10;;
11135;SDS011;5622;50.840;4.948;2022-12-29T07:03:15;5.30;;;1.67;;
11135;SDS011;5622;50.840;4.948;2022-12-29T07:05:42;6.37;;;1.90;;
11135;SDS011;5622;50.840;4.948;2022-12-29T07:08:10;9.30;;;2.10;;
11135;SDS011;5622;50.840;4.948;2022-12-29T07:10:37;8.53;;;2.23;;
11135;SDS011;5622;50.840;4.948;2022-12-29T07:13:04;6.17;;;1.83;;
11135;SDS011;5622;50.840;4.948;2022-12-29T07:15:34;6.13;;;2.07;;
11135;SDS011;5622;50.840;4.948;2022-12-29T07:18:02;6.47;;;2.23;;
11135;SDS011;5622;50.840;4.948;2022-12-29T07:20:29;6.90;;;1.93;;
11135;SDS011;5622;50.840;4.948;2022-12-29T07:22:56;7.03;;;1.80;;
11135;SDS011;5622;50.840;4.948;2022-12-29T07:25:23;7.53;;;1.43;;
11135;SDS011;5622;50.840;4.948;2022-12-29T07:27:50;6.87;;;1.80;;
11135;SDS011;5622;50.840;4.948;2022-12-29T07:30:18;5.53;;;1.73;;
11135;SDS011;5622;50.840;4.948;2022-12-29T07:32:46;8.07;;;2.10;;
11135;SDS011;5622;50.840;4.948;2022-12-29T07:35:13;10.07;;;2.20;;
11135;SDS011;5622;50.840;4.948;2022-12-29T07:37:41;8.57;;;1.97;;
11135;SDS011;5622;50.840;4.948;2022-12-29T07:40:08;7.23;;;1.83;;
11135;SDS011;5622;50.840;4.948;2022-12-29T07:42:37;6.67;;;1.70;;
11135;SDS011;5622;50.840;4.948;2022-12-29T07:45:05;7.43;;;2.00;;
11135;SDS011;5622;50.840;4.948;2022-12-29T07:47:34;9.63;;;2.00;;
11135;SDS011;5622;50.840;4.948;2022-12-29T07:50:03;8.70;;;1.87;;
11135;SDS011;5622;50.840;4.948;2022-12-29T07:52:30;9.93;;;2.13;;
11135;SDS011;5622;50.840;4.948;2022-12-29T07:54:57;7.43;;;1.93;;
11135;SDS011;5622;50.840;4.948;2022-12-29T07:57:25;6.07;;;2.30;;
11135;SDS011;5622;50.840;4.948;2022-12-29T07:59:52;9.73;;;2.13;;
11135;SDS011;5622;50.840;4.948;2022-12-29T08:02:19;8.93;;;2.00;;
11135;SDS011;5622;50.840;4.948;2022-12-29T08:04:46;8.80;;;2.30;;
11135;SDS011;5622;50.840;4.948;2022-12-29T08:07:14;13.03;;;2.50;;
11135;SDS011;5622;50.840;4.948;2022-12-29T08:09:41;11.13;;;2.73;;
11135;SDS011;5622;50.840;4.948;2022-12-29T08:12:09;12.37;;;2.37;;
11135;SDS011;5622;50.840;4.948;2022-12-29T08:14:36;9.67;;;2.77;;
11135;SDS011;5622;50.840;4.948;2022-12-29T08:17:03;5.97;;;1.77;;
11135;SDS011;5622;50.840;4.948;2022-12-29T08:19:30;6.07;;;1.97;;
11135;SDS011;5622;50.840;4.948;2022-12-29T08:21:57;8.93;;;2.20;;
11135;SDS011;5622;50.840;4.948;2022-12-29T08:24:26;7.90;;;2.10;;
11135;SDS011;5622;50.840;4.948;2022-12-29T08:26:53;10.13;;;2.53;;
11135;SDS011;5622;50.840;4.948;2022-12-29T08:29:21;7.37;;;1.87;;
11135;SDS011;5622;50.840;4.948;2022-12-29T08:31:48;9.47;;;2.17;;
11135;SDS011;5622;50.840;4.948;2022-12-29T08:34:15;11.37;;;1.77;;
11135;SDS011;5622;50.840;4.948;2022-12-29T08:36:42;8.83;;;2.10;;
11135;SDS011;5622;50.840;4.948;2022-12-29T08:39:09;8.07;;;2.10;;
11135;SDS011;5622;50.840;4.948;2022-12-29T08:41:38;6.27;;;2.50;;
11135;SDS011;5622;50.840;4.948;2022-12-29T08:44:05;4.67;;;1.93;;
11135;SDS011;5622;50.840;4.948;2022-12-29T08:46:32;8.30;;;1.90;;
11135;SDS011;5622;50.840;4.948;2022-12-29T08:48:59;11.80;;;1.87;;
11135;SDS011;5622;50.840;4.948;2022-12-29T08:51:26;8.10;;;2.03;;
11135;SDS011;5622;50.840;4.948;2022-12-29T08:53:53;7.97;;;1.90;;
11135;SDS011;5622;50.840;4.948;2022-12-29T08:56:20;7.10;;;2.00;;
11135;SDS011;5622;50.840;4.948;2022-12-29T08:58:50;7.67;;;1.70;;
11135;SDS011;5622;50.840;4.948;2022-12-29T09:01:17;10.17;;;2.30;;
11135;SDS011;5622;50.840;4.948;2022-12-29T09:03:44;8.20;;;2.10;;
11135;SDS011;5622;50.840;4.948;2022-12-29T09:06:12;7.63;;;2.00;;
11135;SDS011;5622;50.840;4.948;2022-12-29T09:08:40;9.60;;;2.23;;
11135;SDS011;5622;50.840;4.948;2022-12-29T09:11:08;7.33;;;2.03;;
11135;SDS011;5622;50.840;4.948;2022-12-29T09:13:36;8.07;;;2.30;;
11135;SDS011;5622;50.840;4.948;2022-12-29T09:16:05;15.70;;;2.20;;
11135;SDS011;5622;50.840;4.948;2022-12-29T09:18:33;11.10;;;2.70;;
11135;SDS011;5622;50.840;4.948;2022-12-29T09:21:01;6.73;;;2.33;;
11135;SDS011;5622;50.840;4.948;2022-12-29T09:23:30;8.83;;;2.00;;
11135;SDS011;5622;50.840;4.948;2022-12-29T09:25:57;8.33;;;2.20;;
11135;SDS011;5622;50.840;4.948;2022-12-29T09:28:25;12.10;;;2.20;;
11135;SDS011;5622;50.840;4.948;2022-12-29T09:30:54;10.70;;;2.40;;
11135;SDS011;5622;50.840;4.948;2022-12-29T09:33:23;11.27;;;3.13;;
11135;SDS011;5622;50.840;4.948;2022-12-29T09:35:51;7.83;;;2.40;;
11135;SDS011;5622;50.840;4.948;2022-12-29T09:38:19;8.43;;;2.17;;
11135;SDS011;5622;50.840;4.948;2022-12-29T09:40:49;11.73;;;2.67;;
11135;SDS011;5622;50.840;4.948;2022-12-29T09:43:21;9.67;;;3.07;;
11135;SDS011;5622;50.840;4.948;2022-12-29T09:46:00;21.13;;;7.77;;
11135;SDS011;5622;50.840;4.948;2022-12-29T09:48:39;12.67;;;4.27;;
11135;SDS011;5622;50.840;4.948;2022-12-29T09:51:10;9.27;;;3.07;;
11135;SDS011;5622;50.840;4.948;2022-12-29T09:53:40;11.93;;;3.40;;
11135;SDS011;5622;50.840;4.948;2022-12-29T09:56:11;8.90;;;3.87;;
11135;SDS011;5622;50.840;4.948;2022-12-29T09:58:43;12.33;;;4.30;;
11135;SDS011;5622;50.840;4.948;2022-12-29T10:01:20;17.33;;;3.87;;
11135;SDS011;5622;50.840;4.948;2022-12-29T10:03:54;12.30;;;3.00;;
11135;SDS011;5622;50.840;4.948;2022-12-29T10:06:24;12.97;;;5.13;;
11135;SDS011;5622;50.840;4.948;2022-12-29T10:08:57;13.43;;;5.40;;
11135;SDS011;5622;50.840;4.948;2022-12-29T10:11:35;10.53;;;3.70;;
11135;SDS011;5622;50.840;4.948;2022-12-29T10:14:23;10.53;;;3.37;;
11135;SDS011;5622;50.840;4.948;2022-12-29T10:17:17;12.40;;;3.97;;
11135;SDS011;5622;50.840;4.948;2022-12-29T10:19:57;7.57;;;3.87;;
11135;SDS011;5622;50.840;4.948;2022-12-29T10:22:34;11.97;;;4.77;;
11135;SDS011;5622;50.840;4.948;2022-12-29T10:25:16;18.47;;;5.20;;
11135;SDS011;5622;50.840;4.948;2022-12-29T10:27:46;12.00;;;3.40;;
11135;SDS011;5622;50.840;4.948;2022-12-29T10:30:14;11.37;;;2.83;;
11135;SDS011;5622;50.840;4.948;2022-12-29T10:32:44;11.77;;;2.70;;
11135;SDS011;5622;50.840;4.948;2022-12-29T10:35:15;12.37;;;3.50;;
11135;SDS011;5622;50.840;4.948;2022-12-29T10:37:46;17.77;;;4.17;;
11135;SDS011;5622;50.840;4.948;2022-12-29T10:40:19;12.50;;;3.23;;
11135;SDS011;5622;50.840;4.948;2022-12-29T10:42:53;15.03;;;3.57;;
11135;SDS011;5622;50.840;4.948;2022-12-29T10:45:21;10.83;;;3.53;;
11135;SDS011;5622;50.840;4.948;2022-12-29T10:47:53;13.57;;;3.50;;
11135;SDS011;5622;50.840;4.948;2022-12-29T10:50:25;12.80;;;3.27;;
11135;SDS011;5622;50.840;4.948;2022-12-29T10:52:54;10.53;;;2.37;;
11135;SDS011;5622;50.840;4.948;2022-12-29T10:55:26;9.83;;;2.00;;
11135;SDS011;5622;50.840;4.948;2022-12-29T10:57:57;6.43;;;1.87;;
11135;SDS011;5622;50.840;4.948;2022-12-29T11:00:30;10.63;;;2.27;;
11135;SDS011;5622;50.840;4.948;2022-12-29T11:03:08;10.00;;;2.53;;
11135;SDS011;5622;50.840;4.948;2022-12-29T11:05:58;9.00;;;2.30;;
11135;SDS011;5622;50.840;4.948;2022-12-29T11:08:33;8.87;;;2.30;;
11135;SDS011;5622;50.840;4.948;2022-12-29T11:11:04;8.73;;;2.07;;
11135;SDS011;5622;50.840;4.948;2022-12-29T11:13:33;10.27;;;2.37;;
11135;SDS011;5622;50.840;4.948;2022-12-29T11:16:01;8.53;;;2.07;;
11135;SDS011;5622;50.840;4.948;2022-12-29T11:18:31;7.80;;;2.50;;
11135;SDS011;5622;50.840;4.948;2022-12-29T11:21:04;8.20;;;1.60;;
11135;SDS011;5622;50.840;4.948;2022-12-29T11:23:34;14.20;;;2.73;;
11135;SDS011;5622;50.840;4.948;2022-12-29T11:26:06;8.07;;;2.67;;
11135;SDS011;5622;50.840;4.948;2022-12-29T11:28:42;10.93;;;2.10;;
11135;SDS011;5622;50.840;4.948;2022-12-29T11:31:10;8.57;;;2.07;;
11135;SDS011;5622;50.840;4.948;2022-12-29T11:33:42;10.20;;;2.77;;
11135;SDS011;5622;50.840;4.948;2022-12-29T11:36:13;10.80;;;2.93;;
11135;SDS011;5622;50.840;4.948;2022-12-29T11:38:45;12.77;;;3.00;;
11135;SDS011;5622;50.840;4.948;2022-12-29T11:41:18;7.27;;;1.97;;
11135;SDS011;5622;50.840;4.948;2022-12-29T11:43:48;5.90;;;2.43;;
11135;SDS011;5622;50.840;4.948;2022-12-29T11:46:17;8.60;;;2.17;;
11135;SDS011;5622;50.840;4.948;2022-12-29T11:48:46;11.37;;;2.53;;
11135;SDS011;5622;50.840;4.948;2022-12-29T11:51:22;11.57;;;2.63;;
11135;SDS011;5622;50.840;4.948;2022-12-29T11:53:52;5.93;;;2.23;;
11135;SDS011;5622;50.840;4.948;2022-12-29T11:56:32;15.30;;;3.13;;
11135;SDS011;5622;50.840;4.948;2022-12-29T12:02:03;8.20;;;2.13;;
11135;SDS011;5622;50.840;4.948;2022-12-29T12:04:58;11.53;;;2.07;;
11135;SDS011;5622;50.840;4.948;2022-12-29T12:07:34;7.10;;;2.03;;
11135;SDS011;5622;50.840;4.948;2022-12-29T12:10:10;4.87;;;1.97;;
11135;SDS011;5622;50.840;4.948;2022-12-29T12:12:51;9.03;;;2.03;;
11135;SDS011;5622;50.840;4.948;2022-12-29T12:15:24;10.17;;;2.40;;
11135;SDS011;5622;50.840;4.948;2022-12-29T12:17:58;10.80;;;2.17;;
11135;SDS011;5622;50.840;4.948;2022-12-29T12:20:34;13.33;;;2.80;;
11135;SDS011;5622;50.840;4.948;2022-12-29T12:23:15;8.60;;;3.47;;
11135;SDS011;5622;50.840;4.948;2022-12-29T12:25:56;8.57;;;2.40;;
11135;SDS011;5622;50.840;4.948;2022-12-29T12:28:33;8.00;;;2.10;;
11135;SDS011;5622;50.840;4.948;2022-12-29T12:31:06;18.10;;;7.87;;
11135;SDS011;5622;50.840;4.948;2022-12-29T12:33:45;11.47;;;3.40;;
11135;SDS011;5622;50.840;4.948;2022-12-29T12:36:23;12.57;;;4.57;;
11135;SDS011;5622;50.840;4.948;2022-12-29T12:39:10;10.97;;;3.30;;
11135;SDS011;5622;50.840;4.948;2022-12-29T12:41:47;6.73;;;2.80;;
11135;SDS011;5622;50.840;4.948;2022-12-29T12:44:27;12.40;;;3.57;;
11135;SDS011;5622;50.840;4.948;2022-12-29T12:47:07;13.57;;;3.90;;
11135;SDS011;5622;50.840;4.948;2022-12-29T12:53:02;10.37;;;2.50;;
11135;SDS011;5622;50.840;4.948;2022-12-29T12:55:49;9.07;;;2.73;;
11135;SDS011;5622;50.840;4.948;2022-12-29T12:58:27;7.37;;;2.93;;
11135;SDS011;5622;50.840;4.948;2022-12-29T13:01:06;8.80;;;3.10;;
11135;SDS011;5622;50.840;4.948;2022-12-29T13:03:45;14.43;;;4.87;;
11135;SDS011;5622;50.840;4.948;2022-12-29T13:06:22;10.53;;;4.30;;
11135;SDS011;5622;50.840;4.948;2022-12-29T13:09:08;9.77;;;4.03;;
11135;SDS011;5622;50.840;4.948;2022-12-29T13:11:54;13.57;;;3.83;;
11135;SDS011;5622;50.840;4.948;2022-12-29T13:14:33;11.27;;;3.57;;
11135;SDS011;5622;50.840;4.948;2022-12-29T13:17:11;8.37;;;3.00;;
11135;SDS011;5622;50.840;4.948;2022-12-29T13:19:44;11.80;;;2.60;;
11135;SDS011;5622;50.840;4.948;2022-12-29T13:22:20;11.03;;;3.63;;
11135;SDS011;5622;50.840;4.948;2022-12-29T13:24:55;10.23;;;3.00;;
11135;SDS011;5622;50.840;4.948;2022-12-29T13:27:38;7.57;;;2.77;;
11135;SDS011;5622;50.840;4.948;2022-12-29T13:30:13;6.90;;;3.13;;
11135;SDS011;5622;50.840;4.948;2022-12-29T13:32:47;10.23;;;2.67;;
11135;SDS011;5622;50.840;4.948;2022-12-29T13:35:28;7.47;;;3.23;;
11135;SDS011;5622;50.840;4.948;2022-12-29T13:38:03;11.03;;;2.43;;
11135;SDS011;5622;50.840;4.948;2022-12-29T13:40:38;13.17;;;3.67;;
11135;SDS011;5622;50.840;4.948;2022-12-29T13:43:11;12.03;;;3.33;;
11135;SDS011;5622;50.840;4.948;2022-12-29T13:45:40;8.70;;;2.43;;
11135;SDS011;5622;50.840;4.948;2022-12-29T13:48:11;11.13;;;3.37;;
11135;SDS011;5622;50.840;4.948;2022-12-29T13:50:44;14.03;;;3.80;;
11135;SDS011;5622;50.840;4.948;2022-12-29T13:53:19;10.57;;;2.87;;
11135;SDS011;5622;50.840;4.948;2022-12-29T13:55:52;9.83;;;3.73;;
11135;SDS011;5622;50.840;4.948;2022-12-29T13:58:27;13.07;;;4.00;;
11135;SDS011;5622;50.840;4.948;2022-12-29T14:01:02;10.97;;;3.70;;
11135;SDS011;5622;50.840;4.948;2022-12-29T14:03:44;11.70;;;2.97;;
11135;SDS011;5622;50.840;4.948;2022-12-29T14:06:15;15.20;;;4.70;;
11135;SDS011;5622;50.840;4.948;2022-12-29T14:08:49;12.20;;;3.03;;
11135;SDS011;5622;50.840;4.948;2022-12-29T14:11:20;10.20;;;3.30;;
11135;SDS011;5622;50.840;4.948;2022-12-29T14:13:52;10.90;;;4.40;;
11135;SDS011;5622;50.840;4.948;2022-12-29T14:16:26;12.77;;;4.33;;
11135;SDS011;5622;50.840;4.948;2022-12-29T14:18:56;7.50;;;2.80;;
11135;SDS011;5622;50.840;4.948;2022-12-29T14:21:30;13.70;;;2.83;;
11135;SDS011;5622;50.840;4.948;2022-12-29T14:33:25;23.57;;;8.20;;
11135;SDS011;5622;50.840;4.948;2022-12-29T14:35:55;10.63;;;3.93;;
11135;SDS011;5622;50.840;4.948;2022-12-29T14:38:24;17.20;;;5.53;;
11135;SDS011;5622;50.840;4.948;2022-12-29T14:40:53;18.17;;;6.30;;
11135;SDS011;5622;50.840;4.948;2022-12-29T14:43:52;13.63;;;3.27;;
11135;SDS011;5622;50.840;4.948;2022-12-29T14:46:21;10.73;;;4.30;;
11135;SDS011;5622;50.840;4.948;2022-12-29T14:48:53;19.23;;;3.80;;
11135;SDS011;5622;50.840;4.948;2022-12-29T14:51:31;12.17;;;3.20;;
11135;SDS011;5622;50.840;4.948;2022-12-29T14:56:58;9.07;;;3.00;;
11135;SDS011;5622;50.840;4.948;2022-12-29T14:59:28;10.33;;;3.40;;
11135;SDS011;5622;50.840;4.948;2022-12-29T15:01:56;13.20;;;3.07;;
11135;SDS011;5622;50.840;4.948;2022-12-29T15:04:26;20.30;;;6.67;;
11135;SDS011;5622;50.840;4.948;2022-12-29T15:06:59;20.57;;;5.63;;
11135;SDS011;5622;50.840;4.948;2022-12-29T15:09:29;15.17;;;2.77;;
11135;SDS011;5622;50.840;4.948;2022-12-29T15:12:01;11.37;;;3.40;;
11135;SDS011;5622;50.840;4.948;2022-12-29T15:14:38;10.73;;;2.60;;
11135;SDS011;5622;50.840;4.948;2022-12-29T15:17:22;8.17;;;2.40;;
11135;SDS011;5622;50.840;4.948;2022-12-29T15:19:53;10.20;;;2.30;;
11135;SDS011;5622;50.840;4.948;2022-12-29T15:22:20;11.07;;;2.80;;
11135;SDS011;5622;50.840;4.948;2022-12-29T15:24:49;9.67;;;2.80;;
11135;SDS011;5622;50.840;4.948;2022-12-29T15:27:19;10.63;;;2.80;;
11135;SDS011;5622;50.840;4.948;2022-12-29T15:29:48;9.00;;;3.00;;
11135;SDS011;5622;50.840;4.948;2022-12-29T15:32:22;16.53;;;3.40;;
11135;SDS011;5622;50.840;4.948;2022-12-29T15:34:51;12.67;;;4.13;;
11135;SDS011;5622;50.840;4.948;2022-12-29T15:37:22;17.33;;;4.63;;
11135;SDS011;5622;50.840;4.948;2022-12-29T15:39:50;12.60;;;4.53;;
11135;SDS011;5622;50.840;4.948;2022-12-29T15:42:30;14.03;;;3.43;;
11135;SDS011;5622;50.840;4.948;2022-12-29T15:45:14;20.40;;;4.53;;
11135;SDS011;5622;50.840;4.948;2022-12-29T15:47:42;16.13;;;4.90;;
11135;SDS011;5622;50.840;4.948;2022-12-29T15:50:16;13.80;;;3.77;;